createdAt,value
2022-10-02T00:02:44.344Z,1.00
2022-10-02T00:05:46.574Z,1.00
2022-10-02T00:08:49.092Z,1.00
2022-10-02T00:11:53.017Z,0.77
2022-10-02T00:14:55.936Z,1.00
2022-10-02T00:17:58.468Z,0.73
2022-10-02T00:21:01.389Z,1.08
2022-10-02T00:24:03.617Z,1.08
2022-10-02T00:27:06.049Z,0.93
2022-10-02T00:30:08.405Z,0.90
2022-10-02T00:33:11.300Z,1.20
2022-10-02T00:36:14.465Z,1.15
2022-10-02T00:39:17.317Z,0.90
2022-10-02T00:42:19.848Z,0.80
2022-10-02T00:45:22.522Z,0.95
2022-10-02T00:48:24.678Z,0.90
2022-10-02T00:51:27.219Z,1.00
2022-10-02T00:54:29.982Z,0.93
2022-10-02T00:57:32.508Z,0.77
2022-10-02T01:00:35.475Z,1.00
2022-10-02T01:03:38.494Z,0.80
2022-10-02T01:06:41.765Z,1.00
2022-10-02T01:09:44.364Z,0.75
2022-10-02T01:12:46.869Z,0.77
2022-10-02T01:15:49.278Z,0.88
2022-10-02T01:18:52.180Z,0.73
2022-10-02T01:21:55.147Z,0.80
2022-10-02T01:24:57.176Z,0.95
2022-10-02T01:27:59.457Z,0.98
2022-10-02T01:31:01.792Z,0.63
2022-10-02T01:34:04.626Z,0.80
2022-10-02T01:37:07.099Z,0.77
2022-10-02T01:40:09.790Z,0.68
2022-10-02T01:43:12.537Z,0.70
2022-10-02T01:46:15.103Z,0.70
2022-10-02T01:49:18.650Z,0.82
2022-10-02T01:52:21.252Z,0.77
2022-10-02T01:55:23.375Z,0.90
2022-10-02T01:58:26.274Z,0.80
2022-10-02T02:01:29.506Z,0.73
2022-10-02T02:04:32.337Z,0.70
2022-10-02T02:07:34.897Z,0.70
2022-10-02T02:10:37.761Z,0.93
2022-10-02T02:13:41.077Z,0.75
2022-10-02T02:16:43.994Z,0.60
2022-10-02T02:19:46.556Z,0.73
2022-10-02T02:22:49.656Z,0.70
2022-10-02T02:25:52.501Z,0.80
2022-10-02T02:28:55.431Z,0.77
2022-10-02T02:31:58.524Z,1.00
2022-10-02T02:35:01.693Z,0.88
2022-10-02T02:38:04.441Z,0.70
2022-10-02T02:41:07.189Z,0.70
2022-10-02T02:44:10.007Z,0.77
2022-10-02T02:47:12.614Z,0.68
2022-10-02T02:50:15.199Z,0.80
2022-10-02T02:53:17.759Z,0.88
2022-10-02T02:56:20.303Z,0.70
2022-10-02T02:59:23.147Z,0.88
2022-10-02T03:02:26.083Z,0.60
2022-10-02T03:05:28.669Z,1.15
2022-10-02T03:08:31.520Z,0.50
2022-10-02T03:11:34.686Z,0.63
2022-10-02T03:14:37.169Z,0.63
2022-10-02T03:17:39.772Z,0.80
2022-10-02T03:20:42.232Z,0.82
2022-10-02T03:23:45.442Z,0.82
2022-10-02T03:26:48.228Z,0.80
2022-10-02T03:29:51.133Z,0.73
2022-10-02T03:32:53.942Z,0.90
2022-10-02T03:35:56.787Z,0.77
2022-10-02T03:39:24.360Z,0.90
2022-10-02T03:42:22.272Z,0.70
2022-10-02T03:45:46.628Z,0.63
2022-10-02T03:48:47.078Z,0.80
2022-10-02T03:51:49.700Z,0.77
2022-10-02T03:54:52.331Z,0.88
2022-10-02T03:57:54.500Z,0.70
2022-10-02T04:00:57.298Z,0.80
2022-10-02T04:03:59.729Z,0.82
2022-10-02T04:07:02.232Z,0.60
2022-10-02T04:10:05.435Z,0.82
2022-10-02T04:13:08.548Z,0.90
2022-10-02T04:16:11.844Z,0.68
2022-10-02T04:19:14.740Z,0.80
2022-10-02T04:22:17.792Z,0.90
2022-10-02T04:25:20.546Z,0.73
2022-10-02T04:28:23.451Z,0.80
2022-10-02T04:31:25.934Z,0.70
2022-10-02T04:34:28.275Z,0.75
2022-10-02T04:37:30.823Z,0.70
2022-10-02T04:40:33.790Z,0.90
2022-10-02T04:43:36.620Z,0.70
2022-10-02T04:46:38.911Z,0.80
2022-10-02T04:49:41.698Z,0.70
2022-10-02T04:52:44.294Z,1.00
2022-10-02T04:55:46.846Z,0.80
2022-10-02T04:58:48.964Z,0.70
2022-10-02T05:01:51.662Z,0.70
2022-10-02T05:04:53.774Z,0.70
2022-10-02T05:07:56.358Z,0.80
2022-10-02T05:10:58.567Z,0.70
2022-10-02T05:14:02.093Z,0.70
2022-10-02T05:17:06.649Z,0.70
2022-10-02T05:20:09.815Z,0.85
2022-10-02T05:23:12.955Z,0.90
2022-10-02T05:26:15.748Z,0.80
2022-10-02T05:29:18.492Z,0.68
2022-10-02T05:32:21.664Z,0.68
2022-10-02T05:35:24.768Z,0.70
2022-10-02T05:38:27.529Z,0.85
2022-10-02T05:41:30.054Z,0.80
2022-10-02T05:44:32.537Z,0.93
2022-10-02T05:47:34.913Z,0.80
2022-10-02T05:50:37.473Z,0.90
2022-10-02T05:53:39.873Z,0.93
2022-10-02T05:56:42.249Z,0.60
2022-10-02T05:59:44.863Z,0.82
2022-10-02T06:02:47.832Z,0.73
2022-10-02T06:05:50.402Z,0.90
2022-10-02T06:08:53.620Z,0.63
2022-10-02T06:11:56.832Z,0.70
2022-10-02T06:14:59.510Z,0.90
2022-10-02T06:18:02.464Z,0.80
2022-10-02T06:21:05.408Z,0.80
2022-10-02T06:24:08.279Z,0.88
2022-10-02T06:27:10.763Z,0.80
2022-10-02T06:30:13.281Z,0.80
2022-10-02T06:33:16.172Z,0.70
2022-10-02T06:36:18.837Z,0.70
2022-10-02T06:39:21.188Z,0.98
2022-10-02T06:42:24.162Z,0.85
2022-10-02T06:45:26.973Z,0.73
2022-10-02T06:48:30.026Z,0.93
2022-10-02T06:51:32.694Z,0.90
2022-10-02T06:54:35.543Z,0.73
2022-10-02T06:57:38.114Z,0.82
2022-10-02T07:00:41.768Z,0.70
2022-10-02T07:03:44.260Z,0.80
2022-10-02T07:06:47.069Z,0.60
2022-10-02T07:09:49.901Z,0.70
2022-10-02T07:12:52.560Z,0.90
2022-10-02T07:15:55.160Z,0.70
2022-10-02T07:18:57.581Z,1.00
2022-10-02T07:22:00.296Z,0.73
2022-10-02T07:25:03.575Z,0.85
2022-10-02T07:28:06.739Z,0.93
2022-10-02T07:31:09.913Z,0.63
2022-10-02T07:34:13.145Z,0.63
2022-10-02T07:37:15.992Z,0.70
2022-10-02T07:40:18.535Z,0.60
2022-10-02T07:43:21.088Z,0.70
2022-10-02T07:46:23.201Z,0.70
2022-10-02T07:49:26.429Z,0.70
2022-10-02T07:52:28.876Z,0.70
2022-10-02T07:55:31.046Z,0.80
2022-10-02T07:58:33.756Z,0.80
2022-10-02T08:01:37.129Z,0.65
2022-10-02T08:04:39.320Z,0.70
2022-10-02T08:07:41.442Z,0.77
2022-10-02T08:10:44.078Z,0.90
2022-10-02T08:13:46.174Z,0.80
2022-10-02T08:16:49.051Z,0.70
2022-10-02T08:19:52.045Z,0.70
2022-10-02T08:22:54.429Z,1.00
2022-10-02T08:25:57.432Z,0.80
2022-10-02T08:29:00.259Z,0.80
2022-10-02T08:32:02.907Z,0.90
2022-10-02T08:35:05.860Z,0.90
2022-10-02T08:38:08.495Z,0.80
2022-10-02T08:41:11.200Z,0.65
2022-10-02T08:44:14.036Z,0.77
2022-10-02T08:47:17.208Z,0.90
2022-10-02T08:50:19.877Z,0.75
2022-10-02T08:53:22.121Z,0.80
2022-10-02T08:56:24.899Z,0.85
2022-10-02T08:59:28.580Z,1.00
2022-10-02T09:02:31.765Z,0.75
2022-10-02T09:05:34.174Z,0.77
2022-10-02T09:08:36.710Z,1.00
2022-10-02T09:11:39.431Z,0.70
2022-10-02T09:14:42.278Z,0.70
2022-10-02T09:17:45.186Z,0.70
2022-10-02T09:20:48.097Z,0.77
2022-10-02T09:23:50.693Z,0.80
2022-10-02T09:26:53.177Z,0.90
2022-10-02T09:29:55.577Z,0.80
2022-10-02T09:32:57.739Z,0.82
2022-10-02T09:36:00.226Z,0.80
2022-10-02T09:39:03.072Z,0.80
2022-10-02T09:42:06.052Z,0.82
2022-10-02T09:45:09.206Z,0.80
2022-10-02T09:48:12.059Z,0.80
2022-10-02T09:51:14.656Z,0.93
2022-10-02T09:54:17.570Z,0.85
2022-10-02T09:57:20.737Z,0.85
2022-10-02T10:00:23.140Z,0.82
2022-10-02T10:03:26.210Z,0.85
2022-10-02T10:06:28.583Z,0.90
2022-10-02T10:09:31.072Z,0.80
2022-10-02T10:12:33.953Z,0.90
2022-10-02T10:15:36.068Z,0.73
2022-10-02T10:18:38.594Z,0.80
2022-10-02T10:21:41.222Z,0.73
2022-10-02T10:24:44.188Z,0.73
2022-10-02T10:27:47.057Z,0.93
2022-10-02T10:30:49.973Z,1.00
2022-10-02T10:33:53.151Z,0.77
2022-10-02T10:36:56.340Z,0.80
2022-10-02T10:39:59.459Z,0.75
2022-10-02T10:43:11.642Z,0.93
2022-10-02T10:46:17.095Z,0.85
2022-10-02T10:49:19.944Z,0.60
2022-10-02T10:52:22.396Z,0.80
2022-10-02T10:55:25.439Z,0.82
2022-10-02T10:58:27.841Z,0.82
2022-10-02T11:01:30.823Z,0.65
2022-10-02T11:04:34.167Z,0.70
2022-10-02T11:07:37.013Z,1.10
2022-10-02T11:10:39.531Z,0.70
2022-10-02T11:13:42.756Z,0.73
2022-10-02T11:16:45.707Z,0.80
2022-10-02T11:19:48.287Z,0.80
2022-10-02T11:22:51.262Z,0.90
2022-10-02T11:25:54.117Z,0.80
2022-10-02T11:28:56.530Z,0.65
2022-10-02T11:31:59.188Z,1.17
2022-10-02T11:35:01.914Z,1.65
2022-10-02T11:38:04.428Z,1.50
2022-10-02T11:41:06.608Z,1.58
2022-10-02T11:44:09.537Z,1.30
2022-10-02T11:47:11.907Z,1.40
2022-10-02T11:50:14.557Z,1.40
2022-10-02T11:53:17.497Z,1.40
2022-10-02T11:56:19.882Z,1.17
2022-10-02T11:59:22.776Z,1.17
2022-10-02T12:02:26.079Z,1.40
2022-10-02T12:05:28.992Z,1.13
2022-10-02T12:08:31.870Z,1.00
2022-10-02T12:11:35.141Z,1.20
2022-10-02T12:14:37.575Z,1.10
2022-10-02T12:17:40.174Z,1.20
2022-10-02T12:20:42.727Z,1.30
2022-10-02T12:23:46.555Z,1.50
2022-10-02T12:26:49.897Z,1.30
2022-10-02T12:29:53.120Z,1.17
2022-10-02T12:32:55.522Z,1.00
2022-10-02T12:35:58.419Z,1.40
2022-10-02T12:39:01.567Z,1.08
2022-10-02T12:42:04.662Z,1.00
2022-10-02T12:45:11.706Z,1.08
2022-10-02T12:48:14.717Z,1.17
2022-10-02T12:51:17.717Z,1.17
2022-10-02T12:54:20.408Z,1.15
2022-10-02T12:57:23.593Z,1.08
2022-10-02T13:00:26.780Z,1.05
2022-10-02T13:03:29.623Z,1.10
2022-10-02T13:06:31.748Z,1.00
2022-10-02T13:09:34.617Z,1.13
2022-10-02T13:12:37.028Z,1.02
2022-10-02T13:15:39.533Z,0.80
2022-10-02T13:18:42.390Z,0.80
2022-10-02T13:21:45.659Z,1.10
2022-10-02T13:24:48.537Z,1.15
2022-10-02T13:27:51.162Z,1.00
2022-10-02T13:30:53.748Z,0.93
2022-10-02T13:33:56.384Z,0.95
2022-10-02T13:36:59.292Z,0.90
2022-10-02T13:40:02.394Z,1.25
2022-10-02T13:43:04.745Z,1.10
2022-10-02T13:46:07.670Z,1.00
2022-10-02T13:49:10.876Z,0.95
2022-10-02T13:52:13.708Z,0.90
2022-10-02T13:55:16.551Z,1.00
2022-10-02T13:58:19.453Z,1.00
2022-10-02T14:01:22.107Z,0.90
2022-10-02T14:04:24.984Z,1.00
2022-10-02T14:07:27.370Z,0.90
2022-10-02T14:10:29.970Z,1.08
2022-10-02T14:13:32.330Z,1.08
2022-10-02T14:16:35.245Z,1.15
2022-10-02T14:19:37.923Z,1.15
2022-10-02T14:22:40.825Z,1.33
2022-10-02T14:25:43.633Z,1.00
2022-10-02T14:28:46.097Z,1.35
2022-10-02T14:31:49.266Z,1.17
2022-10-02T14:34:51.850Z,1.08
2022-10-02T14:37:54.562Z,1.15
2022-10-02T14:40:57.342Z,0.93
2022-10-02T14:44:00.724Z,1.27
2022-10-02T14:47:03.873Z,1.13
2022-10-02T14:50:07.147Z,0.90
2022-10-02T14:53:09.989Z,1.20
2022-10-02T14:56:13.184Z,1.10
2022-10-02T14:59:16.028Z,1.08
2022-10-02T15:02:18.573Z,1.00
2022-10-02T15:05:20.981Z,1.00
2022-10-02T15:08:23.530Z,1.25
2022-10-02T15:11:26.401Z,1.00
2022-10-02T15:14:29.106Z,1.20
2022-10-02T15:17:32.194Z,1.10
2022-10-02T15:20:34.996Z,1.25
2022-10-02T15:23:37.091Z,1.20
2022-10-02T15:26:40.028Z,1.00
2022-10-02T15:29:42.443Z,0.95
2022-10-02T15:32:45.140Z,0.85
2022-10-02T15:35:48.383Z,1.15
2022-10-02T15:38:50.874Z,0.98
2022-10-02T15:41:53.984Z,1.10
2022-10-02T15:44:57.119Z,1.27
2022-10-02T15:48:00.151Z,1.00
2022-10-02T15:51:02.948Z,0.95
2022-10-02T15:54:05.057Z,1.05
2022-10-02T15:57:07.898Z,1.10
2022-10-02T16:00:10.249Z,1.00
2022-10-02T16:03:15.209Z,1.20
2022-10-02T16:06:17.552Z,1.02
2022-10-02T16:09:20.869Z,0.90
2022-10-02T16:12:23.460Z,1.02
2022-10-02T16:15:26.048Z,0.82
2022-10-02T16:18:28.504Z,0.88
2022-10-02T16:21:30.909Z,0.90
2022-10-02T16:24:33.062Z,1.00
2022-10-02T16:27:36.164Z,1.13
2022-10-02T16:30:38.662Z,1.25
2022-10-02T16:33:41.589Z,0.88
2022-10-02T16:36:44.511Z,1.00
2022-10-02T16:39:47.114Z,0.93
2022-10-02T16:42:50.279Z,1.10
2022-10-02T16:45:53.124Z,1.17
2022-10-02T16:48:56.101Z,0.90
2022-10-02T16:51:58.838Z,1.10
2022-10-02T16:55:00.966Z,1.00
2022-10-02T16:58:03.136Z,0.95
2022-10-02T17:01:05.295Z,1.08
2022-10-02T17:04:08.024Z,1.15
2022-10-02T17:07:10.125Z,0.80
2022-10-02T17:10:18.090Z,1.00
2022-10-02T17:13:21.923Z,0.80
2022-10-02T17:16:24.844Z,1.10
2022-10-02T17:19:27.713Z,1.00
2022-10-02T17:22:30.526Z,0.80
2022-10-02T17:25:33.301Z,0.85
2022-10-02T17:28:36.205Z,0.90
2022-10-02T17:31:38.771Z,1.15
2022-10-02T17:34:41.559Z,0.75
2022-10-02T17:37:44.239Z,1.00
2022-10-02T17:40:46.844Z,0.98
2022-10-02T17:43:49.010Z,1.00
2022-10-02T17:46:51.929Z,0.80
2022-10-02T17:49:55.111Z,1.00
2022-10-02T17:52:58.276Z,0.93
2022-10-02T17:56:01.504Z,0.93
2022-10-02T17:59:04.857Z,1.20
2022-10-02T18:02:08.096Z,1.10
2022-10-02T18:05:11.258Z,0.90
2022-10-02T18:08:14.399Z,0.93
2022-10-02T18:11:17.256Z,1.10
2022-10-02T18:14:20.472Z,1.00
2022-10-02T18:17:22.880Z,0.95
2022-10-02T18:20:25.381Z,1.10
2022-10-02T18:23:28.160Z,0.90
2022-10-02T18:26:31.334Z,0.95
2022-10-02T18:29:34.784Z,1.00
2022-10-02T18:32:37.284Z,1.17
2022-10-02T18:35:40.300Z,0.95
2022-10-02T18:38:44.657Z,0.80
2022-10-02T18:41:47.792Z,0.63
2022-10-02T18:44:50.397Z,1.10
2022-10-02T18:47:53.302Z,1.05
2022-10-02T18:50:56.484Z,0.88
2022-10-02T18:53:59.410Z,0.90
2022-10-02T18:57:01.961Z,1.10
2022-10-02T19:00:04.436Z,0.80
2022-10-02T19:03:08.116Z,0.90
2022-10-02T19:06:10.680Z,0.93
2022-10-02T19:09:13.577Z,1.00
2022-10-02T19:12:16.383Z,1.10
2022-10-02T19:15:19.219Z,1.15
2022-10-02T19:18:21.770Z,1.00
2022-10-02T19:21:24.956Z,1.20
2022-10-02T19:24:27.993Z,0.90
2022-10-02T19:27:30.532Z,0.82
2022-10-02T19:30:33.159Z,1.05
2022-10-02T19:33:36.458Z,1.00
2022-10-02T19:36:38.863Z,0.90
2022-10-02T19:39:41.417Z,1.00
2022-10-02T19:42:43.969Z,1.23
2022-10-02T19:45:46.119Z,0.85
2022-10-02T19:48:48.817Z,1.00
2022-10-02T19:51:51.644Z,1.02
2022-10-02T19:54:54.334Z,1.25
2022-10-02T19:57:57.493Z,1.10
2022-10-02T20:01:00.811Z,0.88
2022-10-02T20:04:04.036Z,1.20
2022-10-02T20:07:06.943Z,1.00
2022-10-02T20:10:09.428Z,1.25
2022-10-02T20:13:12.641Z,1.10
2022-10-02T20:16:15.502Z,0.98
2022-10-02T20:19:18.213Z,1.00
2022-10-02T20:22:20.399Z,1.35
2022-10-02T20:25:22.937Z,1.70
2022-10-02T20:28:25.500Z,1.17
2022-10-02T20:31:28.306Z,1.15
2022-10-02T20:34:31.028Z,1.00
2022-10-02T20:37:33.891Z,1.00
2022-10-02T20:40:36.319Z,1.20
2022-10-02T20:43:38.664Z,1.30
2022-10-02T20:46:41.539Z,1.23
2022-10-02T20:49:44.258Z,1.20
2022-10-02T20:52:47.138Z,1.02
2022-10-02T20:55:49.797Z,0.95
2022-10-02T20:58:52.363Z,1.08
2022-10-02T21:01:55.332Z,1.15
2022-10-02T21:04:57.788Z,1.52
2022-10-02T21:08:00.291Z,1.40
2022-10-02T21:11:03.094Z,1.33
2022-10-02T21:14:05.646Z,1.10
2022-10-02T21:17:08.552Z,1.50
2022-10-02T21:20:12.263Z,1.42
2022-10-02T21:23:16.974Z,1.50
2022-10-02T21:26:20.225Z,1.42
2022-10-02T21:29:22.642Z,1.20
2022-10-02T21:32:25.069Z,1.60
2022-10-02T21:35:27.216Z,1.38
2022-10-02T21:38:29.836Z,1.30
2022-10-02T21:41:32.665Z,1.38
2022-10-02T21:44:35.704Z,1.58
2022-10-02T21:47:38.441Z,1.50
2022-10-02T21:50:41.064Z,1.70
2022-10-02T21:53:43.640Z,1.60
2022-10-02T21:56:49.696Z,1.42
2022-10-02T21:59:58.389Z,1.70
2022-10-02T22:03:00.926Z,1.75
2022-10-02T22:06:03.500Z,1.42
2022-10-02T22:09:06.298Z,1.50
2022-10-02T22:12:08.662Z,1.88
2022-10-02T22:15:11.548Z,1.40
2022-10-02T22:18:14.457Z,1.30
2022-10-02T22:21:17.372Z,1.65
2022-10-02T22:24:19.907Z,1.60
2022-10-02T22:27:22.210Z,1.67
2022-10-02T22:30:25.867Z,1.48
2022-10-02T22:33:28.983Z,1.50
2022-10-02T22:36:32.158Z,1.40
2022-10-02T22:39:35.016Z,1.42
2022-10-02T22:42:37.763Z,1.40
2022-10-02T22:45:41.111Z,1.40
2022-10-02T22:48:43.689Z,1.40
2022-10-02T22:51:45.869Z,1.40
2022-10-02T22:54:48.864Z,1.50
2022-10-02T22:57:52.086Z,1.40
2022-10-02T23:00:54.437Z,1.58
2022-10-02T23:03:57.309Z,1.30
2022-10-02T23:07:00.100Z,1.42
2022-10-02T23:10:02.516Z,1.65
2022-10-02T23:13:05.158Z,1.60
2022-10-02T23:16:08.387Z,1.23
2022-10-02T23:19:10.851Z,1.48
2022-10-02T23:22:13.304Z,1.63
2022-10-02T23:25:16.441Z,1.50
2022-10-02T23:28:19.216Z,1.40
2022-10-02T23:31:22.230Z,1.52
2022-10-02T23:34:25.109Z,1.48
2022-10-02T23:37:27.901Z,1.63
2022-10-02T23:40:30.355Z,1.35
2022-10-02T23:43:33.112Z,1.35
2022-10-02T23:46:36.081Z,1.40
2022-10-02T23:49:39.191Z,1.38
2022-10-02T23:52:41.833Z,1.55
2022-10-02T23:55:44.894Z,1.25
2022-10-02T23:58:48.027Z,1.60
